createdAt,value
2023-05-05T00:00:49.354Z,40.64
2023-05-05T00:01:49.419Z,40.61
2023-05-05T00:02:49.517Z,40.61
2023-05-05T00:03:49.581Z,40.62
2023-05-05T00:04:49.547Z,40.62
2023-05-05T00:05:49.573Z,40.63
2023-05-05T00:06:49.626Z,40.62
2023-05-05T00:07:49.664Z,40.65
2023-05-05T00:08:49.751Z,40.63
2023-05-05T00:09:49.752Z,40.61
2023-05-05T00:10:49.791Z,40.62
2023-05-05T00:11:49.839Z,40.62
2023-05-05T00:12:49.905Z,40.62
2023-05-05T00:13:49.920Z,40.63
2023-05-05T00:14:49.978Z,40.65
2023-05-05T00:15:50.021Z,40.63
2023-05-05T00:16:50.070Z,40.63
2023-05-05T00:17:50.126Z,40.64
2023-05-05T00:18:50.142Z,40.64
2023-05-05T00:19:50.189Z,40.64
2023-05-05T00:20:50.249Z,40.63
2023-05-05T00:21:50.292Z,40.66
2023-05-05T00:22:50.295Z,40.66
2023-05-05T00:23:50.295Z,40.65
2023-05-05T00:24:50.303Z,40.67
2023-05-05T00:25:50.301Z,40.66
2023-05-05T00:26:50.302Z,40.67
2023-05-05T00:27:50.308Z,40.66
2023-05-05T00:28:50.331Z,40.65
2023-05-05T00:29:50.311Z,40.66
2023-05-05T00:30:50.325Z,40.67
2023-05-05T00:31:50.324Z,40.66
2023-05-05T00:32:50.366Z,40.67
2023-05-05T00:33:50.347Z,40.66
2023-05-05T00:34:50.369Z,40.66
2023-05-05T00:35:50.363Z,40.68
2023-05-05T00:36:50.380Z,40.65
2023-05-05T00:37:50.425Z,40.69
2023-05-05T00:38:50.481Z,40.66
2023-05-05T00:39:50.526Z,40.66
2023-05-05T00:40:50.596Z,40.65
2023-05-05T00:41:50.630Z,40.66
2023-05-05T00:42:50.701Z,40.69
2023-05-05T00:43:50.720Z,40.68
2023-05-05T00:44:50.771Z,40.65
2023-05-05T00:45:50.815Z,40.68
2023-05-05T00:46:51.022Z,40.66
2023-05-05T00:47:50.934Z,40.66
2023-05-05T00:48:51.067Z,40.66
2023-05-05T00:49:50.992Z,40.68
2023-05-05T00:50:51.056Z,40.68
2023-05-05T00:51:51.090Z,40.70
2023-05-05T00:52:51.135Z,40.67
2023-05-05T00:53:51.182Z,40.68
2023-05-05T00:54:51.226Z,40.69
2023-05-05T00:55:51.276Z,40.68
2023-05-05T00:56:51.313Z,40.65
2023-05-05T00:57:51.365Z,40.70
2023-05-05T00:58:51.409Z,40.68
2023-05-05T00:59:51.454Z,40.69
2023-05-05T01:00:51.495Z,40.71
2023-05-05T01:01:51.582Z,40.69
2023-05-05T01:02:51.635Z,40.70
2023-05-05T01:03:51.716Z,40.71
2023-05-05T01:04:51.681Z,40.70
2023-05-05T01:05:51.732Z,40.72
2023-05-05T01:06:51.771Z,40.70
2023-05-05T01:07:51.803Z,40.69
2023-05-05T01:08:51.847Z,40.70
2023-05-05T01:09:58.702Z,40.68
2023-05-05T01:10:52.925Z,40.70
2023-05-05T01:11:51.896Z,40.69
2023-05-05T01:12:51.953Z,40.68
2023-05-05T01:13:51.918Z,40.69
2023-05-05T01:14:51.922Z,40.70
2023-05-05T01:15:51.982Z,40.72
2023-05-05T01:16:51.929Z,40.68
2023-05-05T01:17:52.001Z,40.71
2023-05-05T01:18:51.953Z,40.69
2023-05-05T01:19:51.953Z,40.72
2023-05-05T01:20:51.989Z,40.70
2023-05-05T01:21:51.980Z,40.70
2023-05-05T01:22:51.986Z,40.70
2023-05-05T01:23:51.995Z,40.67
2023-05-05T01:24:51.999Z,40.68
2023-05-05T01:25:52.024Z,40.71
2023-05-05T01:26:52.078Z,40.66
2023-05-05T01:27:52.127Z,40.70
2023-05-05T01:28:52.171Z,40.69
2023-05-05T01:29:52.227Z,40.69
2023-05-05T01:30:52.288Z,40.71
2023-05-05T01:31:52.366Z,40.69
2023-05-05T01:32:52.426Z,40.68
2023-05-05T01:33:52.434Z,40.70
2023-05-05T01:34:52.478Z,40.68
2023-05-05T01:35:52.541Z,40.71
2023-05-05T01:36:52.577Z,40.70
2023-05-05T01:37:52.624Z,40.70
2023-05-05T01:38:52.700Z,40.70
2023-05-05T01:39:52.738Z,40.73
2023-05-05T01:40:52.796Z,40.70
2023-05-05T01:41:52.839Z,40.71
2023-05-05T01:42:52.893Z,40.71
2023-05-05T01:43:52.941Z,40.71
2023-05-05T01:44:52.996Z,40.73
2023-05-05T01:45:53.071Z,40.69
2023-05-05T01:46:53.089Z,40.68
2023-05-05T01:47:53.169Z,40.70
2023-05-05T01:48:53.196Z,40.73
2023-05-05T01:49:53.246Z,40.71
2023-05-05T01:50:53.304Z,40.71
2023-05-05T01:51:53.367Z,40.70
2023-05-05T01:52:53.414Z,40.72
2023-05-05T01:53:53.473Z,40.71
2023-05-05T01:54:53.520Z,40.72
2023-05-05T01:55:53.566Z,40.70
2023-05-05T01:56:53.633Z,40.72
2023-05-05T01:57:53.679Z,40.71
2023-05-05T01:58:53.736Z,40.72
2023-05-05T01:59:53.788Z,40.73
2023-05-05T02:00:53.950Z,40.72
2023-05-05T02:01:53.875Z,40.70
2023-05-05T02:02:53.966Z,40.71
2023-05-05T02:03:53.982Z,40.72
2023-05-05T02:04:54.018Z,40.72
2023-05-05T02:05:54.060Z,40.70
2023-05-05T02:06:54.108Z,40.72
2023-05-05T02:07:54.156Z,40.72
2023-05-05T02:08:54.200Z,40.73
2023-05-05T02:09:54.245Z,40.72
2023-05-05T02:10:54.304Z,40.73
2023-05-05T02:11:54.341Z,40.72
2023-05-05T02:12:54.428Z,40.73
2023-05-05T02:13:54.458Z,40.73
2023-05-05T02:14:54.500Z,40.73
2023-05-05T02:15:54.605Z,40.75
2023-05-05T02:16:54.613Z,40.72
2023-05-05T02:17:54.693Z,40.72
2023-05-05T02:18:54.710Z,40.74
2023-05-05T02:19:54.780Z,40.74
2023-05-05T02:20:54.815Z,40.73
2023-05-05T02:21:54.882Z,40.73
2023-05-05T02:22:54.945Z,40.74
2023-05-05T02:23:55.006Z,40.73
2023-05-05T02:24:55.053Z,40.72
2023-05-05T02:25:55.094Z,40.73
2023-05-05T02:26:55.153Z,40.71
2023-05-05T02:27:55.205Z,40.73
2023-05-05T02:28:55.278Z,40.72
2023-05-05T02:29:55.334Z,40.73
2023-05-05T02:30:55.385Z,40.75
2023-05-05T02:31:55.436Z,40.71
2023-05-05T02:32:55.541Z,40.72
2023-05-05T02:33:55.558Z,40.74
2023-05-05T02:34:55.622Z,40.72
2023-05-05T02:35:55.669Z,40.70
2023-05-05T02:36:55.729Z,40.71
2023-05-05T02:37:55.788Z,40.72
2023-05-05T02:38:55.846Z,40.75
2023-05-05T02:39:55.898Z,40.72
2023-05-05T02:40:55.946Z,40.74
2023-05-05T02:41:56.011Z,40.75
2023-05-05T02:42:56.089Z,40.75
2023-05-05T02:43:56.104Z,40.74
2023-05-05T02:44:56.159Z,40.74
2023-05-05T02:45:56.196Z,40.75
2023-05-05T02:46:56.254Z,40.74
2023-05-05T02:47:56.314Z,40.73
2023-05-05T02:48:56.352Z,40.75
2023-05-05T02:49:56.402Z,40.75
2023-05-05T02:50:56.455Z,40.74
2023-05-05T02:51:56.508Z,40.74
2023-05-05T02:52:56.575Z,40.77
2023-05-05T02:53:56.615Z,40.75
2023-05-05T02:54:56.669Z,40.74
2023-05-05T02:55:56.733Z,40.77
2023-05-05T02:56:56.791Z,40.75
2023-05-05T02:57:56.853Z,40.76
2023-05-05T02:58:56.917Z,40.75
2023-05-05T02:59:56.976Z,40.75
2023-05-05T03:00:57.012Z,40.74
2023-05-05T03:01:57.259Z,40.74
2023-05-05T03:02:57.206Z,40.75
2023-05-05T03:03:57.319Z,40.75
2023-05-05T03:04:57.234Z,40.75
2023-05-05T03:05:57.297Z,40.76
2023-05-05T03:06:57.356Z,40.77
2023-05-05T03:07:57.400Z,40.76
2023-05-05T03:08:57.482Z,40.74
2023-05-05T03:09:57.513Z,40.77
2023-05-05T03:10:57.585Z,40.75
2023-05-05T03:11:57.628Z,40.77
2023-05-05T03:12:57.713Z,40.75
2023-05-05T03:13:57.745Z,40.76
2023-05-05T03:14:57.805Z,40.75
2023-05-05T03:15:58.121Z,40.75
2023-05-05T03:16:57.920Z,40.75
2023-05-05T03:17:58.004Z,40.75
2023-05-05T03:18:58.023Z,40.75
2023-05-05T03:19:58.074Z,40.79
2023-05-05T03:20:58.137Z,40.77
2023-05-05T03:21:58.196Z,40.77
2023-05-05T03:22:58.247Z,40.77
2023-05-05T03:23:58.323Z,40.77
2023-05-05T03:24:58.375Z,40.77
2023-05-05T03:25:58.424Z,40.75
2023-05-05T03:26:58.480Z,40.76
2023-05-05T03:27:58.547Z,40.73
2023-05-05T03:28:58.603Z,40.78
2023-05-05T03:29:58.662Z,40.74
2023-05-05T03:30:58.717Z,40.76
2023-05-05T03:31:58.814Z,40.77
2023-05-05T03:32:58.893Z,40.76
2023-05-05T03:33:58.906Z,40.76
2023-05-05T03:34:58.965Z,40.76
2023-05-05T03:35:59.023Z,40.76
2023-05-05T03:36:59.077Z,40.77
2023-05-05T03:37:59.140Z,40.78
2023-05-05T03:38:59.196Z,40.77
2023-05-05T03:39:59.269Z,40.79
2023-05-05T03:40:59.350Z,40.80
2023-05-05T03:41:59.398Z,40.80
2023-05-05T03:42:59.440Z,40.80
2023-05-05T03:43:59.517Z,40.78
2023-05-05T03:44:59.566Z,40.80
2023-05-05T03:45:59.663Z,40.76
2023-05-05T03:46:59.680Z,40.78
2023-05-05T03:47:59.795Z,40.76
2023-05-05T03:48:59.804Z,40.75
2023-05-05T03:49:59.860Z,40.78
2023-05-05T03:51:00.612Z,40.74
2023-05-05T03:51:59.982Z,40.79
2023-05-05T03:53:00.058Z,40.77
2023-05-05T03:54:00.143Z,40.80
2023-05-05T03:55:00.205Z,40.79
2023-05-05T03:56:00.281Z,40.81
2023-05-05T03:57:00.298Z,40.78
2023-05-05T03:58:00.368Z,40.76
2023-05-05T03:59:00.443Z,40.79
2023-05-05T04:00:00.506Z,40.77
2023-05-05T04:01:00.551Z,40.77
2023-05-05T04:02:00.750Z,40.78
2023-05-05T04:03:01.192Z,40.75
2023-05-05T04:04:00.818Z,40.81
2023-05-05T04:05:00.809Z,40.77
2023-05-05T04:06:00.886Z,40.74
2023-05-05T04:07:00.941Z,40.77
2023-05-05T04:08:01.008Z,40.73
2023-05-05T04:09:01.063Z,40.74
2023-05-05T04:10:01.131Z,40.73
2023-05-05T04:11:01.194Z,40.75
2023-05-05T04:12:01.246Z,40.74
2023-05-05T04:13:01.343Z,40.75
2023-05-05T04:14:01.385Z,40.75
2023-05-05T04:15:01.426Z,40.74
2023-05-05T04:16:01.618Z,40.75
2023-05-05T04:17:01.544Z,40.74
2023-05-05T04:18:01.620Z,40.73
2023-05-05T04:19:01.665Z,40.74
2023-05-05T04:21:01.783Z,40.72
2023-05-05T04:22:01.829Z,40.73
2023-05-05T04:23:01.905Z,40.73
2023-05-05T04:24:01.967Z,40.71
2023-05-05T04:25:02.030Z,40.74
2023-05-05T04:26:02.087Z,40.74
2023-05-05T04:27:02.139Z,40.72
2023-05-05T04:28:02.208Z,40.73
2023-05-05T04:29:02.261Z,40.71
2023-05-05T04:30:02.326Z,40.70
2023-05-05T04:31:02.422Z,40.74
2023-05-05T04:32:02.477Z,40.72
2023-05-05T04:33:02.529Z,40.70
2023-05-05T04:34:02.574Z,40.70
2023-05-05T04:35:02.626Z,40.70
2023-05-05T04:36:02.704Z,40.67
2023-05-05T04:37:02.826Z,40.70
2023-05-05T04:38:02.830Z,40.70
2023-05-05T04:39:02.952Z,40.70
2023-05-05T04:40:02.959Z,40.71
2023-05-05T04:41:03.017Z,40.71
2023-05-05T04:42:03.074Z,40.70
2023-05-05T04:43:03.166Z,40.68
2023-05-05T04:44:03.204Z,40.67
2023-05-05T04:45:03.267Z,40.67
2023-05-05T04:46:03.376Z,40.66
2023-05-05T04:47:03.397Z,40.66
2023-05-05T04:48:03.470Z,40.65
2023-05-05T04:49:03.554Z,40.65
2023-05-05T04:50:03.583Z,40.66
2023-05-05T04:51:03.635Z,40.66
2023-05-05T04:52:03.692Z,40.63
2023-05-05T04:53:03.753Z,40.63
2023-05-05T04:54:03.818Z,40.68
2023-05-05T04:55:03.890Z,40.61
2023-05-05T04:56:03.931Z,40.64
2023-05-05T04:57:03.983Z,40.61
2023-05-05T04:58:04.049Z,40.60
2023-05-05T04:59:04.115Z,40.57
2023-05-05T05:00:04.159Z,40.57
2023-05-05T05:01:04.223Z,40.58
2023-05-05T05:02:04.337Z,40.57
2023-05-05T05:03:04.443Z,40.58
2023-05-05T05:04:04.640Z,40.60
2023-05-05T05:05:04.425Z,40.58
2023-05-05T05:06:04.479Z,40.55
2023-05-05T05:07:04.546Z,40.56
2023-05-05T05:08:04.599Z,40.60
2023-05-05T05:09:04.641Z,40.58
2023-05-05T05:10:04.717Z,40.56
2023-05-05T05:11:04.758Z,40.57
2023-05-05T05:12:04.824Z,40.55
2023-05-05T05:13:04.898Z,40.54
2023-05-05T05:14:04.919Z,40.55
2023-05-05T05:15:04.984Z,40.55
2023-05-05T05:16:05.080Z,40.54
2023-05-05T05:17:05.069Z,40.55
2023-05-05T05:18:05.176Z,40.56
2023-05-05T05:19:05.173Z,40.61
2023-05-05T05:20:05.334Z,40.89
2023-05-05T05:21:05.287Z,40.86
2023-05-05T05:22:05.347Z,40.79
2023-05-05T05:23:05.384Z,40.88
2023-05-05T05:24:05.427Z,41.29
2023-05-05T05:25:05.484Z,41.02
2023-05-05T05:26:05.531Z,41.48
2023-05-05T05:27:06.418Z,41.55
2023-05-05T05:28:10.627Z,41.25
2023-05-05T05:29:06.590Z,41.30
2023-05-05T05:30:05.713Z,41.36
2023-05-05T05:31:05.596Z,41.48
2023-05-05T05:32:05.674Z,41.43
2023-05-05T05:33:05.640Z,41.44
2023-05-05T05:34:05.612Z,41.44
2023-05-05T05:35:05.624Z,41.47
2023-05-05T05:36:05.644Z,41.47
2023-05-05T05:37:05.631Z,41.42
2023-05-05T05:38:05.626Z,41.36
2023-05-05T05:39:05.621Z,41.26
2023-05-05T05:40:05.670Z,41.16
2023-05-05T05:41:05.652Z,41.11
2023-05-05T05:42:05.644Z,41.15
2023-05-05T05:43:05.657Z,41.17
2023-05-05T05:44:05.656Z,41.16
2023-05-05T05:45:05.655Z,41.11
2023-05-05T05:46:08.225Z,41.07
2023-05-05T05:47:05.686Z,41.11
2023-05-05T05:48:05.706Z,41.13
2023-05-05T05:49:05.681Z,41.14
2023-05-05T05:50:05.838Z,41.14
2023-05-05T05:51:05.696Z,41.14
2023-05-05T05:52:05.702Z,41.16
2023-05-05T05:53:05.708Z,41.12
2023-05-05T05:54:05.720Z,41.10
2023-05-05T05:55:05.727Z,41.10
2023-05-05T05:56:05.729Z,41.07
2023-05-05T05:57:05.736Z,40.98
2023-05-05T05:58:05.736Z,40.91
2023-05-05T05:59:06.129Z,40.89
2023-05-05T06:00:05.881Z,40.83
2023-05-05T06:01:05.760Z,40.75
2023-05-05T06:02:05.791Z,40.71
2023-05-05T06:03:05.878Z,40.71
2023-05-05T06:04:05.784Z,40.65
2023-05-05T06:05:05.757Z,40.63
2023-05-05T06:06:05.755Z,40.64
2023-05-05T06:07:05.778Z,40.60
2023-05-05T06:08:05.776Z,40.58
2023-05-05T06:09:05.774Z,40.55
2023-05-05T06:10:22.900Z,40.51
2023-05-05T06:11:06.769Z,40.51
2023-05-05T06:12:05.798Z,40.49
2023-05-05T06:13:05.828Z,40.48
2023-05-05T06:14:05.787Z,40.50
2023-05-05T06:15:05.773Z,40.47
2023-05-05T06:16:05.797Z,40.44
2023-05-05T06:17:05.782Z,40.43
2023-05-05T06:18:05.824Z,40.42
2023-05-05T06:19:05.785Z,40.42
2023-05-05T06:20:05.880Z,40.41
2023-05-05T06:21:05.778Z,40.34
2023-05-05T06:22:05.786Z,40.30
2023-05-05T06:23:05.800Z,40.30
2023-05-05T06:24:05.931Z,40.29
2023-05-05T06:25:05.947Z,40.27
2023-05-05T06:26:05.785Z,40.23
2023-05-05T06:27:05.804Z,40.23
2023-05-05T06:28:05.869Z,40.22
2023-05-05T06:29:05.790Z,40.23
2023-05-05T06:30:06.148Z,40.17
2023-05-05T06:31:05.921Z,40.72
2023-05-05T06:32:06.010Z,40.76
2023-05-05T06:33:06.082Z,41.21
2023-05-05T06:34:06.064Z,41.20
2023-05-05T06:35:06.129Z,42.28
2023-05-05T06:36:07.082Z,41.73
2023-05-05T06:37:06.236Z,41.70
2023-05-05T06:38:06.268Z,41.96
2023-05-05T06:39:06.311Z,42.12
2023-05-05T06:40:06.400Z,41.99
2023-05-05T06:41:06.373Z,42.05
2023-05-05T06:42:06.385Z,42.11
2023-05-05T06:43:06.418Z,42.30
2023-05-05T06:44:06.445Z,42.28
2023-05-05T06:45:06.483Z,42.46
2023-05-05T06:46:06.475Z,42.55
2023-05-05T06:47:06.573Z,42.79
2023-05-05T06:48:06.514Z,42.64
2023-05-05T06:49:06.510Z,42.78
2023-05-05T06:50:06.782Z,43.01
2023-05-05T06:51:06.679Z,43.05
2023-05-05T06:52:06.540Z,43.09
2023-05-05T06:53:06.549Z,42.99
2023-05-05T06:54:06.551Z,43.12
2023-05-05T06:55:06.549Z,43.40
2023-05-05T06:56:06.554Z,43.58
2023-05-05T06:57:06.752Z,43.64
2023-05-05T06:58:06.603Z,44.76
2023-05-05T06:59:06.535Z,44.27
2023-05-05T07:00:06.795Z,44.25
2023-05-05T07:01:06.582Z,44.38
2023-05-05T07:02:06.522Z,44.26
2023-05-05T07:03:06.523Z,44.40
2023-05-05T07:04:06.596Z,44.37
2023-05-05T07:05:06.493Z,44.55
2023-05-05T07:06:06.493Z,44.72
2023-05-05T07:07:06.463Z,44.96
2023-05-05T07:08:06.448Z,45.19
2023-05-05T07:09:06.433Z,45.37
2023-05-05T07:10:06.633Z,45.66
2023-05-05T07:11:06.406Z,45.58
2023-05-05T07:12:06.394Z,45.60
2023-05-05T07:13:06.487Z,45.65
2023-05-05T07:14:06.363Z,45.81
2023-05-05T07:15:19.200Z,45.92
2023-05-05T07:16:07.353Z,45.85
2023-05-05T07:17:06.295Z,46.05
2023-05-05T07:18:06.392Z,46.24
2023-05-05T07:19:06.260Z,46.21
2023-05-05T07:20:06.419Z,44.93
2023-05-05T07:21:06.232Z,44.41
2023-05-05T07:22:06.201Z,43.59
2023-05-05T07:23:06.179Z,41.85
2023-05-05T07:24:06.165Z,39.60
2023-05-05T07:25:06.148Z,40.24
2023-05-05T07:26:06.131Z,40.04
2023-05-05T07:27:06.127Z,39.30
2023-05-05T07:28:06.110Z,38.37
2023-05-05T07:29:06.269Z,39.01
2023-05-05T07:30:11.245Z,38.66
2023-05-05T07:31:07.137Z,39.25
2023-05-05T07:32:06.153Z,38.77
2023-05-05T07:33:06.161Z,38.29
2023-05-05T07:34:06.113Z,37.70
2023-05-05T07:35:06.099Z,37.43
2023-05-05T07:36:06.098Z,37.18
2023-05-05T07:37:06.084Z,38.29
2023-05-05T07:38:06.072Z,38.36
2023-05-05T07:39:06.078Z,37.74
2023-05-05T07:40:06.403Z,38.42
2023-05-05T07:41:06.058Z,38.69
2023-05-05T07:42:06.049Z,38.59
2023-05-05T07:43:06.088Z,38.41
2023-05-05T07:44:06.122Z,38.46
2023-05-05T07:45:06.155Z,38.69
2023-05-05T07:46:06.232Z,38.76
2023-05-05T07:47:06.206Z,38.86
2023-05-05T07:48:06.310Z,38.87
2023-05-05T07:49:06.280Z,38.85
2023-05-05T07:50:06.742Z,38.85
2023-05-05T07:51:06.341Z,38.85
2023-05-05T07:52:06.383Z,38.78
2023-05-05T07:53:14.641Z,38.86
2023-05-05T07:54:07.397Z,38.82
2023-05-05T07:55:06.397Z,38.63
2023-05-05T07:56:06.357Z,38.62
2023-05-05T07:57:06.351Z,38.51
2023-05-05T07:58:07.090Z,38.19
2023-05-05T07:59:07.161Z,38.33
2023-05-05T08:00:07.314Z,38.52
2023-05-05T08:01:06.496Z,38.50
2023-05-05T08:02:06.404Z,38.58
2023-05-05T08:03:07.774Z,38.61
2023-05-05T08:04:07.173Z,38.49
2023-05-05T08:05:06.671Z,38.49
2023-05-05T08:06:06.231Z,38.44
2023-05-05T08:07:06.212Z,37.70
2023-05-05T08:08:06.187Z,37.94
2023-05-05T08:09:06.191Z,38.07
2023-05-05T08:10:06.148Z,38.07
2023-05-05T08:11:06.141Z,37.32
2023-05-05T08:12:06.120Z,36.49
2023-05-05T08:13:06.224Z,35.93
2023-05-05T08:15:05.518Z,35.68
2023-05-05T08:16:05.389Z,35.27
2023-05-05T08:17:05.382Z,35.53
2023-05-05T08:18:05.382Z,36.06
2023-05-05T08:19:14.619Z,36.75
2023-05-05T08:20:06.239Z,36.91
2023-05-05T08:21:05.199Z,36.55
2023-05-05T08:22:05.180Z,37.02
2023-05-05T08:23:05.157Z,37.69
2023-05-05T08:24:05.134Z,37.17
2023-05-05T08:25:05.148Z,35.95
2023-05-05T08:26:05.048Z,35.81
2023-05-05T08:27:05.034Z,36.08
2023-05-05T08:28:05.013Z,36.81
2023-05-05T08:29:04.987Z,37.03
2023-05-05T08:30:04.976Z,36.94
2023-05-05T08:31:05.587Z,37.05
2023-05-05T08:32:05.002Z,37.33
2023-05-05T08:33:05.148Z,36.92
2023-05-05T08:34:05.035Z,36.83
2023-05-05T08:35:05.203Z,37.21
2023-05-05T08:36:05.043Z,36.92
2023-05-05T08:37:05.079Z,37.08
2023-05-05T08:38:05.092Z,36.82
2023-05-05T08:39:05.058Z,37.31
2023-05-05T08:40:05.053Z,37.29
2023-05-05T08:41:05.051Z,37.54
2023-05-05T08:42:05.051Z,37.65
2023-05-05T08:43:05.067Z,37.65
2023-05-05T08:44:05.028Z,37.69
2023-05-05T08:45:05.050Z,37.45
2023-05-05T08:46:04.997Z,37.81
2023-05-05T08:47:05.004Z,37.55
2023-05-05T08:48:05.150Z,37.78
2023-05-05T08:49:05.064Z,37.83
2023-05-05T08:50:04.937Z,37.86
2023-05-05T08:51:05.660Z,37.90
2023-05-05T08:52:04.863Z,38.05
2023-05-05T08:53:04.854Z,38.13
2023-05-05T08:54:04.814Z,38.01
2023-05-05T08:55:04.866Z,38.20
2023-05-05T08:56:04.756Z,38.63
2023-05-05T08:57:04.745Z,38.45
2023-05-05T08:58:04.685Z,38.52
2023-05-05T08:59:04.684Z,38.58
2023-05-05T09:00:04.641Z,38.53
2023-05-05T09:01:04.623Z,38.37
2023-05-05T09:02:04.618Z,38.44
2023-05-05T09:03:04.715Z,38.35
2023-05-05T09:04:04.526Z,38.34
2023-05-05T09:05:04.557Z,38.38
2023-05-05T09:06:04.501Z,38.62
2023-05-05T09:07:04.429Z,38.38
2023-05-05T09:08:04.410Z,38.50
2023-05-05T09:09:04.377Z,38.43
2023-05-05T09:10:04.365Z,38.43
2023-05-05T09:11:04.327Z,38.37
2023-05-05T09:12:04.314Z,38.20
2023-05-05T09:13:04.289Z,38.48
2023-05-05T09:14:04.230Z,38.48
2023-05-05T09:15:04.204Z,39.26
2023-05-05T09:16:04.156Z,39.05
2023-05-05T09:17:04.229Z,39.15
2023-05-05T09:18:04.159Z,39.13
2023-05-05T09:19:04.069Z,38.89
2023-05-05T09:20:04.054Z,38.73
2023-05-05T09:21:04.106Z,38.91
2023-05-05T09:22:03.950Z,39.14
2023-05-05T09:23:03.914Z,39.46
2023-05-05T09:24:08.203Z,39.60
2023-05-05T09:25:04.886Z,39.75
2023-05-05T09:26:03.783Z,39.89
2023-05-05T09:27:03.754Z,40.04
2023-05-05T09:28:03.712Z,40.22
2023-05-05T09:29:03.646Z,40.30
2023-05-05T09:30:03.635Z,40.46
2023-05-05T09:31:03.593Z,40.59
2023-05-05T09:32:03.559Z,40.69
2023-05-05T09:33:03.534Z,40.76
2023-05-05T09:34:03.435Z,40.79
2023-05-05T09:35:03.389Z,40.92
2023-05-05T09:36:03.358Z,41.02
2023-05-05T09:37:03.451Z,41.13
2023-05-05T09:38:03.276Z,41.32
2023-05-05T09:39:03.224Z,41.41
2023-05-05T09:40:03.186Z,41.43
2023-05-05T09:41:03.139Z,41.49
2023-05-05T09:42:03.093Z,41.62
2023-05-05T09:43:03.062Z,41.65
2023-05-05T09:44:02.981Z,41.78
2023-05-05T09:45:02.949Z,41.76
2023-05-05T09:46:02.938Z,41.87
2023-05-05T09:47:05.276Z,41.94
2023-05-05T09:48:02.941Z,41.97
2023-05-05T09:49:02.796Z,42.02
2023-05-05T09:50:02.738Z,42.13
2023-05-05T09:51:02.687Z,42.22
2023-05-05T09:52:02.677Z,42.30
2023-05-05T09:53:03.569Z,42.38
2023-05-05T09:54:02.584Z,42.48
2023-05-05T09:55:02.541Z,42.58
2023-05-05T09:56:02.496Z,42.67
2023-05-05T09:57:02.476Z,42.69
2023-05-05T09:58:02.435Z,42.78
2023-05-05T09:59:02.367Z,42.84
2023-05-05T10:00:03.322Z,42.87
2023-05-05T10:01:02.314Z,42.92
2023-05-05T10:02:02.318Z,42.71
2023-05-05T10:03:02.272Z,42.70
2023-05-05T10:04:02.135Z,42.60
2023-05-05T10:05:02.533Z,42.31
2023-05-05T10:06:02.052Z,42.43
2023-05-05T10:07:02.670Z,42.49
2023-05-05T10:08:01.957Z,42.48
2023-05-05T10:09:01.919Z,42.32
2023-05-05T10:10:01.873Z,42.06
2023-05-05T10:11:01.849Z,41.84
2023-05-05T10:12:01.794Z,41.77
2023-05-05T10:13:01.885Z,41.80
2023-05-05T10:14:02.733Z,41.79
2023-05-05T10:15:01.678Z,41.83
2023-05-05T10:16:01.737Z,41.82
2023-05-05T10:17:02.109Z,41.83
2023-05-05T10:18:07.744Z,41.87
2023-05-05T10:19:02.540Z,41.90
2023-05-05T10:20:01.508Z,41.88
2023-05-05T10:21:01.464Z,41.90
2023-05-05T10:22:01.433Z,41.93
2023-05-05T10:23:01.394Z,41.92
2023-05-05T10:24:01.355Z,41.92
2023-05-05T10:25:01.335Z,41.99
2023-05-05T10:26:01.287Z,42.62
2023-05-05T10:27:01.261Z,42.23
2023-05-05T10:28:01.227Z,42.19
2023-05-05T10:29:01.197Z,42.14
2023-05-05T10:30:01.200Z,42.10
2023-05-05T10:31:01.171Z,42.10
2023-05-05T10:32:01.148Z,42.11
2023-05-05T10:33:17.291Z,42.11
2023-05-05T10:34:02.155Z,42.10
2023-05-05T10:35:02.054Z,42.08
2023-05-05T10:36:00.987Z,42.03
2023-05-05T10:37:00.956Z,42.06
2023-05-05T10:38:00.942Z,42.07
2023-05-05T10:39:00.905Z,42.07
2023-05-05T10:40:00.850Z,42.10
2023-05-05T10:41:00.881Z,42.09
2023-05-05T10:42:01.555Z,42.09
2023-05-05T10:43:00.758Z,42.11
2023-05-05T10:44:02.970Z,42.09
2023-05-05T10:45:01.185Z,42.08
2023-05-05T10:46:00.785Z,42.06
2023-05-05T10:47:00.614Z,42.04
2023-05-05T10:48:00.625Z,42.03
2023-05-05T10:49:00.591Z,42.05
2023-05-05T10:50:00.542Z,42.07
2023-05-05T10:51:00.466Z,42.08
2023-05-05T10:52:00.449Z,42.06
2023-05-05T10:53:00.428Z,42.05
2023-05-05T10:54:00.391Z,42.04
2023-05-05T10:55:00.343Z,42.04
2023-05-05T10:56:00.307Z,42.05
2023-05-05T10:57:00.291Z,42.04
2023-05-05T10:58:00.256Z,42.05
2023-05-05T10:59:00.931Z,42.05
2023-05-05T11:00:00.274Z,42.03
2023-05-05T11:01:00.224Z,42.03
2023-05-05T11:02:00.142Z,42.05
2023-05-05T11:03:00.176Z,42.04
2023-05-05T11:04:00.074Z,42.04
2023-05-05T11:05:00.024Z,42.06
2023-05-05T11:05:59.982Z,42.01
2023-05-05T11:06:59.954Z,42.01
2023-05-05T11:07:59.952Z,42.05
2023-05-05T11:08:59.900Z,42.05
2023-05-05T11:09:59.871Z,42.06
2023-05-05T11:10:59.856Z,42.08
2023-05-05T11:11:59.823Z,42.04
2023-05-05T11:12:59.895Z,42.07
2023-05-05T11:13:59.755Z,42.06
2023-05-05T11:14:59.717Z,42.05
2023-05-05T11:15:59.688Z,42.05
2023-05-05T11:16:59.704Z,42.04
2023-05-05T11:17:59.704Z,42.04
2023-05-05T11:18:59.774Z,42.05
2023-05-05T11:19:59.643Z,42.02
2023-05-05T11:20:59.599Z,42.03
2023-05-05T11:21:59.542Z,42.00
2023-05-05T11:22:59.552Z,42.00
2023-05-05T11:23:59.472Z,42.02
2023-05-05T11:24:59.443Z,42.00
2023-05-05T11:25:59.421Z,41.99
2023-05-05T11:26:59.425Z,41.97
2023-05-05T11:27:59.361Z,41.96
2023-05-05T11:28:59.384Z,41.96
2023-05-05T11:29:59.313Z,41.95
2023-05-05T11:30:59.771Z,41.96
2023-05-05T11:31:59.309Z,41.96
2023-05-05T11:32:59.354Z,41.91
2023-05-05T11:33:59.321Z,41.96
2023-05-05T11:34:59.336Z,41.92
2023-05-05T11:35:59.347Z,41.92
2023-05-05T11:36:59.359Z,41.93
2023-05-05T11:37:59.375Z,41.92
2023-05-05T11:38:59.387Z,41.92
2023-05-05T11:39:59.396Z,41.93
2023-05-05T11:40:59.400Z,41.89
2023-05-05T11:41:59.422Z,41.89
2023-05-05T11:42:59.442Z,41.86
2023-05-05T11:43:59.463Z,41.89
2023-05-05T11:44:59.544Z,41.91
2023-05-05T11:45:59.516Z,41.89
2023-05-05T11:46:59.496Z,41.89
2023-05-05T11:47:59.638Z,41.90
2023-05-05T11:48:59.549Z,41.86
2023-05-05T11:49:59.537Z,41.87
2023-05-05T11:50:59.519Z,41.86
2023-05-05T11:51:59.560Z,41.85
2023-05-05T11:52:59.523Z,41.87
2023-05-05T11:53:59.531Z,41.86
2023-05-05T11:54:59.587Z,41.88
2023-05-05T11:55:59.541Z,41.85
2023-05-05T11:56:59.573Z,41.82
2023-05-05T11:57:59.570Z,41.84
2023-05-05T11:58:59.576Z,41.82
2023-05-05T11:59:59.614Z,41.78
2023-05-05T12:00:59.587Z,41.78
2023-05-05T12:01:59.595Z,41.79
2023-05-05T12:02:59.656Z,41.75
2023-05-05T12:03:59.767Z,41.75
2023-05-05T12:04:59.715Z,41.76
2023-05-05T12:05:59.608Z,41.73
2023-05-05T12:06:59.625Z,41.71
2023-05-05T12:07:59.656Z,41.71
2023-05-05T12:08:59.624Z,41.70
2023-05-05T12:09:59.634Z,41.70
2023-05-05T12:10:59.631Z,41.67
2023-05-05T12:11:59.669Z,41.66
2023-05-05T12:12:59.703Z,41.67
2023-05-05T12:13:59.660Z,41.64
2023-05-05T12:14:59.673Z,41.65
2023-05-05T12:15:59.678Z,41.66
2023-05-05T12:16:59.795Z,41.67
2023-05-05T12:18:02.323Z,41.62
2023-05-05T12:18:59.644Z,41.60
2023-05-05T12:19:59.616Z,41.58
2023-05-05T12:20:59.589Z,41.58
2023-05-05T12:21:59.544Z,41.60
2023-05-05T12:22:59.508Z,41.58
2023-05-05T12:23:59.465Z,41.55
2023-05-05T12:24:59.435Z,41.57
2023-05-05T12:25:59.418Z,41.54
2023-05-05T12:26:59.372Z,41.53
2023-05-05T12:27:59.333Z,41.50
2023-05-05T12:28:59.292Z,41.53
2023-05-05T12:29:59.255Z,41.53
2023-05-05T12:30:59.263Z,41.52
2023-05-05T12:31:59.225Z,41.50
2023-05-05T12:32:59.274Z,41.49
2023-05-05T12:33:59.123Z,41.48
2023-05-05T12:34:59.088Z,41.51
2023-05-05T12:35:59.040Z,41.47
2023-05-05T12:36:59.006Z,41.50
2023-05-05T12:37:58.956Z,41.47
2023-05-05T12:38:58.919Z,41.45
2023-05-05T12:39:58.897Z,41.45
2023-05-05T12:40:58.832Z,41.43
2023-05-05T12:41:58.799Z,41.41
2023-05-05T12:42:58.754Z,41.42
2023-05-05T12:43:58.734Z,41.40
2023-05-05T12:44:58.683Z,41.40
2023-05-05T12:45:58.675Z,41.39
2023-05-05T12:46:58.596Z,41.42
2023-05-05T12:47:58.590Z,41.42
2023-05-05T12:48:58.525Z,41.42
2023-05-05T12:49:58.494Z,41.41
2023-05-05T12:50:58.461Z,41.40
2023-05-05T12:51:58.442Z,41.39
2023-05-05T12:52:58.379Z,41.38
2023-05-05T12:53:58.329Z,41.39
2023-05-05T12:54:58.298Z,41.36